createdAt,value
2019-05-06T10:28:43.572Z,40.81
2019-05-06T10:29:43.534Z,40.81
2019-05-06T10:30:43.526Z,40.51
2019-05-06T10:31:43.510Z,41.33
2019-05-06T10:32:43.501Z,40.65
2019-05-06T10:33:43.513Z,41.59
2019-05-06T10:34:43.665Z,40.85
2019-05-06T10:35:43.466Z,41.14
2019-05-06T10:36:43.537Z,41.14
2019-05-06T10:37:52.640Z,41.04
2019-05-06T10:38:43.460Z,41.44
2019-05-06T10:39:43.420Z,41.20
2019-05-06T10:40:57.297Z,40.49
2019-05-06T10:41:44.399Z,38.84
2019-05-06T10:42:43.408Z,38.64
2019-05-06T10:43:43.410Z,38.53
2019-05-06T10:44:43.363Z,38.53
2019-05-06T10:45:43.377Z,38.74
2019-05-06T10:46:43.341Z,38.62
2019-05-06T10:47:43.365Z,37.29
2019-05-06T10:48:43.339Z,36.99
2019-05-06T10:49:43.327Z,37.21
2019-05-06T10:50:43.303Z,37.49
2019-05-06T10:51:43.305Z,37.21
2019-05-06T10:52:43.285Z,37.21
2019-05-06T10:53:43.325Z,36.68
2019-05-06T10:54:43.364Z,36.58
2019-05-06T10:55:43.422Z,36.66
2019-05-06T10:56:52.908Z,36.66
2019-05-06T10:57:44.273Z,36.65
2019-05-06T10:58:44.024Z,35.63
2019-05-06T10:59:43.201Z,35.63
2019-05-06T11:00:43.218Z,35.83
2019-05-06T11:01:43.171Z,36.04
2019-05-06T11:02:43.209Z,35.64
2019-05-06T11:03:43.162Z,35.85
2019-05-06T11:04:43.187Z,35.75
2019-05-06T11:05:43.409Z,36.90
2019-05-06T11:06:43.209Z,36.71
2019-05-06T11:07:43.253Z,37.23
2019-05-06T11:08:54.147Z,37.33
2019-05-06T11:09:43.146Z,36.68
2019-05-06T11:10:45.454Z,36.56
2019-05-06T11:11:43.065Z,36.24
2019-05-06T11:12:43.166Z,36.65
2019-05-06T11:13:43.049Z,35.29
2019-05-06T11:14:43.033Z,36.00
2019-05-06T11:15:43.516Z,35.27
2019-05-06T11:16:43.009Z,34.87
2019-05-06T11:17:43.573Z,35.70
2019-05-06T11:18:43.033Z,35.78
2019-05-06T11:19:42.977Z,36.29
2019-05-06T11:20:43.895Z,35.99
2019-05-06T11:21:45.105Z,35.48
2019-05-06T11:22:43.642Z,35.99
2019-05-06T11:23:42.943Z,35.99
2019-05-06T11:24:42.976Z,36.29
2019-05-06T11:25:43.279Z,36.90
2019-05-06T11:26:43.153Z,35.55
2019-05-06T11:27:45.183Z,35.34
2019-05-06T11:28:42.987Z,35.77
2019-05-06T11:29:43.517Z,35.46
2019-05-06T11:30:42.914Z,35.77
2019-05-06T11:31:43.355Z,36.60
2019-05-06T11:32:44.414Z,36.22
2019-05-06T11:33:42.822Z,37.26
2019-05-06T11:34:42.831Z,37.56
2019-05-06T11:35:43.149Z,37.87
2019-05-06T11:36:42.841Z,36.95
2019-05-06T11:37:54.226Z,37.26
2019-05-06T11:38:43.258Z,36.44
2019-05-06T11:39:43.133Z,36.24
2019-05-06T11:40:42.769Z,36.75
2019-05-06T11:41:59.592Z,36.44
2019-05-06T11:42:43.893Z,36.44
2019-05-06T11:43:42.957Z,35.41
2019-05-06T11:44:44.132Z,35.41
2019-05-06T11:45:42.858Z,36.12
2019-05-06T11:46:43.023Z,36.14
2019-05-06T11:47:42.688Z,35.22
2019-05-06T11:48:43.245Z,34.92
2019-05-06T11:49:44.171Z,34.92
2019-05-06T11:50:42.774Z,34.71
2019-05-06T11:51:43.634Z,35.19
2019-05-06T11:52:43.428Z,34.09
2019-05-06T11:53:42.645Z,34.88
2019-05-06T11:54:42.594Z,34.88
2019-05-06T11:55:42.642Z,34.95
2019-05-06T11:56:50.691Z,34.85
2019-05-06T11:57:44.610Z,35.19
2019-05-06T11:58:43.101Z,35.61
2019-05-06T11:59:43.382Z,35.53
2019-05-06T12:00:44.169Z,36.55
2019-05-06T12:01:43.458Z,36.65
2019-05-06T12:02:48.073Z,36.63
2019-05-06T12:03:43.491Z,36.53
2019-05-06T12:04:43.341Z,36.44
2019-05-06T12:05:42.857Z,36.83
2019-05-06T12:06:42.548Z,37.24
2019-05-06T12:07:43.461Z,37.04
2019-05-06T12:09:56.921Z,36.14
2019-05-06T12:10:56.872Z,36.97
2019-05-06T12:11:56.841Z,36.55
2019-05-06T12:12:56.842Z,37.54
2019-05-06T12:13:56.831Z,36.32
2019-05-06T12:14:56.815Z,35.90
2019-05-06T12:15:56.805Z,36.12
2019-05-06T12:16:56.833Z,36.12
2019-05-06T12:17:56.801Z,36.73
2019-05-06T12:18:59.644Z,35.00
2019-05-06T12:19:56.755Z,36.53
2019-05-06T12:21:08.279Z,34.90
2019-05-06T12:21:57.783Z,34.87
2019-05-06T12:22:56.766Z,34.88
2019-05-06T12:23:56.720Z,34.88
2019-05-06T12:24:56.712Z,34.07
2019-05-06T12:25:56.754Z,34.38
2019-05-06T12:26:56.675Z,35.19
2019-05-06T12:27:56.674Z,33.85
2019-05-06T12:28:56.702Z,34.68
2019-05-06T12:29:56.649Z,34.17
2019-05-06T12:30:56.643Z,34.78
2019-05-06T12:31:56.621Z,34.66
2019-05-06T12:32:56.640Z,34.04
2019-05-06T12:33:56.630Z,33.94
2019-05-06T12:34:56.644Z,34.36
2019-05-06T12:35:56.584Z,33.41
2019-05-06T12:36:56.579Z,33.12
2019-05-06T12:37:56.556Z,33.33
2019-05-06T12:38:56.564Z,32.82
2019-05-06T12:40:06.941Z,33.02
2019-05-06T12:40:59.641Z,34.14
2019-05-06T12:41:56.520Z,33.56
2019-05-06T12:42:56.509Z,33.87
2019-05-06T12:43:57.412Z,35.21
2019-05-06T12:44:56.494Z,35.19
2019-05-06T12:45:56.482Z,34.07
2019-05-06T12:46:59.649Z,34.39
2019-05-06T12:47:56.461Z,35.00
2019-05-06T12:48:56.442Z,34.90
2019-05-06T12:49:56.450Z,34.88
2019-05-06T12:50:56.518Z,35.21
2019-05-06T12:51:56.405Z,34.39
2019-05-06T12:52:57.904Z,34.19
2019-05-06T12:53:56.414Z,35.10
2019-05-06T12:55:14.581Z,35.29
2019-05-06T12:55:57.408Z,34.99
2019-05-06T12:56:56.348Z,35.17
2019-05-06T12:57:56.357Z,35.07
2019-05-06T12:58:56.343Z,36.19
2019-05-06T12:59:56.342Z,34.56
2019-05-06T13:00:56.320Z,34.87
2019-05-06T13:01:56.355Z,36.00
2019-05-06T13:02:56.289Z,36.43
2019-05-06T13:03:56.273Z,36.83
2019-05-06T13:05:00.712Z,36.34
2019-05-06T13:05:57.277Z,37.26
2019-05-06T13:06:56.301Z,36.77
2019-05-06T13:07:56.234Z,37.27
2019-05-06T13:09:05.301Z,37.48
2019-05-06T13:09:56.253Z,37.38
2019-05-06T13:10:56.245Z,37.87
2019-05-06T13:11:56.215Z,36.93
2019-05-06T13:12:56.211Z,38.15
2019-05-06T13:14:00.350Z,37.16
2019-05-06T13:14:56.172Z,36.95
2019-05-06T13:15:56.144Z,36.85
2019-05-06T13:16:56.140Z,36.73
2019-05-06T13:17:56.131Z,36.71
2019-05-06T13:18:56.150Z,37.84
2019-05-06T13:19:56.122Z,38.65
2019-05-06T13:20:56.095Z,38.32
2019-05-06T13:21:56.082Z,37.61
2019-05-06T13:22:56.076Z,37.71
2019-05-06T13:23:56.065Z,37.93
2019-05-06T13:24:56.089Z,38.26
2019-05-06T13:25:56.034Z,37.97
2019-05-06T13:26:58.799Z,38.68
2019-05-06T13:27:56.019Z,38.48
2019-05-06T13:28:56.007Z,39.19
2019-05-06T13:29:56.063Z,38.28
2019-05-06T13:31:11.859Z,38.80
2019-05-06T13:31:56.968Z,38.90
2019-05-06T13:32:55.963Z,40.76
2019-05-06T13:33:56.229Z,39.43
2019-05-06T13:34:59.017Z,39.03
2019-05-06T13:35:55.929Z,40.76
2019-05-06T13:36:55.957Z,39.84
2019-05-06T13:37:55.908Z,39.15
2019-05-06T13:39:09.477Z,39.03
2019-05-06T13:40:09.073Z,39.01
2019-05-06T13:40:57.622Z,38.80
2019-05-06T13:41:55.924Z,39.01
2019-05-06T13:42:55.864Z,38.40
2019-05-06T13:43:55.859Z,38.29
2019-05-06T13:44:55.860Z,39.01
2019-05-06T13:45:55.821Z,37.58
2019-05-06T13:46:55.819Z,38.68
2019-05-06T13:47:55.826Z,37.95
2019-05-06T13:48:57.591Z,36.63
2019-05-06T13:49:55.788Z,35.51
2019-05-06T13:50:55.771Z,36.65
2019-05-06T13:51:55.748Z,37.05
2019-05-06T13:53:08.279Z,37.26
2019-05-06T13:53:56.734Z,37.04
2019-05-06T13:54:55.737Z,36.22
2019-05-06T13:55:55.714Z,36.63
2019-05-06T13:56:55.698Z,35.51
2019-05-06T13:57:55.690Z,36.14
2019-05-06T13:58:55.672Z,37.24
2019-05-06T13:59:55.714Z,37.24
2019-05-06T14:00:55.653Z,37.46
2019-05-06T14:01:55.683Z,38.07
2019-05-06T14:02:55.636Z,37.79
2019-05-06T14:03:55.621Z,38.19
2019-05-06T14:04:55.606Z,37.82
2019-05-06T14:05:55.627Z,38.53
2019-05-06T14:06:55.581Z,40.37
2019-05-06T14:07:55.581Z,38.42
2019-05-06T14:08:55.561Z,38.02
2019-05-06T14:09:55.577Z,36.79
2019-05-06T14:11:07.548Z,36.79
2019-05-06T14:11:55.529Z,37.29
2019-05-06T14:12:55.514Z,36.46
2019-05-06T14:14:04.036Z,37.09
2019-05-06T14:14:55.580Z,36.79
2019-05-06T14:15:55.609Z,36.58
2019-05-06T14:16:55.481Z,36.08
2019-05-06T14:17:55.469Z,37.10
2019-05-06T14:18:55.451Z,37.01
2019-05-06T14:19:55.444Z,37.19
2019-05-06T14:20:55.437Z,37.10
2019-05-06T14:21:55.471Z,37.21
2019-05-06T14:22:55.406Z,37.72
2019-05-06T14:23:55.398Z,36.80
2019-05-06T14:24:55.383Z,36.80
2019-05-06T14:25:55.380Z,37.01
2019-05-06T14:26:58.627Z,37.10
2019-05-06T14:27:55.362Z,37.31
2019-05-06T14:28:55.344Z,36.70
2019-05-06T14:29:55.332Z,37.10
2019-05-06T14:30:55.331Z,37.43
2019-05-06T14:31:55.306Z,37.72
2019-05-06T14:32:55.339Z,38.33
2019-05-06T14:33:55.287Z,38.55
2019-05-06T14:34:55.282Z,39.04
2019-05-06T14:35:55.264Z,38.64
2019-05-06T14:36:55.249Z,38.65
2019-05-06T14:37:55.268Z,39.04
2019-05-06T14:38:55.333Z,38.64
2019-05-06T14:39:59.249Z,39.17
2019-05-06T14:40:55.212Z,39.26
2019-05-06T14:41:55.193Z,39.57
2019-05-06T14:42:55.182Z,40.39
2019-05-06T14:43:55.182Z,39.17
2019-05-06T14:45:07.523Z,38.76
2019-05-06T14:45:55.180Z,38.46
2019-05-06T14:46:55.153Z,39.18
2019-05-06T14:47:55.139Z,39.49
2019-05-06T14:48:55.165Z,39.26
2019-05-06T14:49:55.117Z,39.37
2019-05-06T14:50:57.221Z,40.71
2019-05-06T14:51:55.099Z,40.41
2019-05-06T14:52:55.077Z,40.51
2019-05-06T14:53:55.065Z,40.53
2019-05-06T14:54:55.117Z,41.04
2019-05-06T14:55:55.043Z,40.94
2019-05-06T14:56:55.054Z,41.65
2019-05-06T14:57:55.021Z,40.32
2019-05-06T14:58:55.006Z,39.71
2019-05-06T14:59:55.881Z,40.32
2019-05-06T15:00:55.041Z,40.63
2019-05-06T15:01:54.980Z,40.44
2019-05-06T15:02:54.978Z,40.95
2019-05-06T15:03:54.954Z,40.34
2019-05-06T15:04:54.940Z,40.65
2019-05-06T15:05:54.962Z,41.06
2019-05-06T15:06:54.922Z,40.65
2019-05-06T15:07:54.909Z,41.36
2019-05-06T15:08:54.908Z,41.06
2019-05-06T15:10:07.911Z,40.95
2019-05-06T15:10:55.914Z,40.44
2019-05-06T15:11:54.862Z,39.71
2019-05-06T15:12:54.851Z,40.75
2019-05-06T15:13:54.837Z,40.65
2019-05-06T15:14:54.840Z,41.77
2019-05-06T15:16:07.647Z,41.36
2019-05-06T15:16:54.835Z,41.56
2019-05-06T15:17:54.851Z,41.36
2019-05-06T15:18:54.891Z,40.44
2019-05-06T15:19:54.782Z,40.55
2019-05-06T15:20:54.761Z,40.95
2019-05-06T15:21:54.748Z,41.88
2019-05-06T15:22:55.615Z,41.06
2019-05-06T15:23:54.755Z,40.85
2019-05-06T15:24:54.728Z,40.56
2019-05-06T15:25:54.718Z,39.95
2019-05-06T15:26:54.699Z,40.67
2019-05-06T15:27:54.691Z,40.97
2019-05-06T15:28:54.716Z,41.59
2019-05-06T15:29:54.666Z,42.41
2019-05-06T15:30:54.655Z,40.16
2019-05-06T15:31:54.645Z,39.64
2019-05-06T15:32:54.630Z,40.16
2019-05-06T15:33:54.623Z,40.26
2019-05-06T15:34:56.255Z,40.05
2019-05-06T15:35:54.598Z,40.05
2019-05-06T15:36:54.592Z,40.05
2019-05-06T15:37:54.582Z,40.56
2019-05-06T15:38:54.569Z,40.87
2019-05-06T15:39:54.552Z,40.36
2019-05-06T15:40:54.586Z,39.64
2019-05-06T15:41:54.540Z,40.97
2019-05-06T15:42:54.528Z,40.56
2019-05-06T15:43:54.513Z,40.87
2019-05-06T15:44:54.516Z,39.34
2019-05-06T15:45:54.624Z,40.05
2019-05-06T15:47:07.154Z,40.26
2019-05-06T15:48:02.686Z,39.85
2019-05-06T15:49:03.002Z,38.93
2019-05-06T15:49:54.451Z,38.83
2019-05-06T15:50:54.442Z,39.87
2019-05-06T15:51:54.478Z,39.76
2019-05-06T15:52:54.549Z,39.36
2019-05-06T15:53:54.498Z,40.17
2019-05-06T15:54:55.174Z,40.69
2019-05-06T15:55:54.385Z,40.99
2019-05-06T15:56:54.379Z,40.17
2019-05-06T15:57:54.393Z,40.38
2019-05-06T15:58:54.364Z,40.91
2019-05-06T15:59:54.341Z,39.87
2019-05-06T16:00:54.333Z,39.46
2019-05-06T16:01:54.384Z,39.15
2019-05-06T16:02:54.301Z,39.05
2019-05-06T16:03:54.300Z,38.85
2019-05-06T16:04:54.294Z,38.44
2019-05-06T16:05:55.245Z,38.76
2019-05-06T16:06:54.260Z,38.66
2019-05-06T16:07:54.275Z,39.17
2019-05-06T16:08:54.349Z,39.58
2019-05-06T16:09:55.411Z,39.17
2019-05-06T16:10:58.431Z,39.17
2019-05-06T16:11:54.217Z,38.66
2019-05-06T16:12:54.221Z,38.45
2019-05-06T16:13:54.204Z,38.35
2019-05-06T16:14:54.231Z,38.35
2019-05-06T16:15:54.167Z,39.28
2019-05-06T16:16:54.182Z,38.76
2019-05-06T16:17:54.150Z,39.28
2019-05-06T16:18:54.132Z,39.07
2019-05-06T16:20:06.747Z,38.96
2019-05-06T16:20:57.156Z,38.35
2019-05-06T16:21:54.112Z,39.50
2019-05-06T16:22:54.150Z,39.09
2019-05-06T16:23:55.011Z,38.78
2019-05-06T16:24:54.063Z,38.37
2019-05-06T16:25:54.072Z,38.78
2019-05-06T16:26:54.081Z,38.88
2019-05-06T16:27:54.843Z,38.37
2019-05-06T16:28:54.026Z,37.76
2019-05-06T16:29:54.021Z,38.27
2019-05-06T16:30:54.001Z,37.96
2019-05-06T16:31:54.019Z,37.86
2019-05-06T16:32:54.250Z,38.59
2019-05-06T16:33:53.975Z,38.90
2019-05-06T16:34:53.962Z,38.57
2019-05-06T16:35:53.948Z,37.47
2019-05-06T16:36:53.937Z,38.49
2019-05-06T16:37:53.922Z,38.08
2019-05-06T16:38:54.788Z,38.80
2019-05-06T16:39:54.643Z,39.21
2019-05-06T16:41:09.062Z,38.59
2019-05-06T16:41:54.872Z,38.90
2019-05-06T16:42:54.627Z,39.33
2019-05-06T16:43:53.860Z,38.39
2019-05-06T16:44:53.887Z,38.59
2019-05-06T16:45:53.845Z,38.80
2019-05-06T16:46:53.841Z,38.70
2019-05-06T16:47:53.827Z,38.40
2019-05-06T16:48:53.801Z,38.31
2019-05-06T16:49:53.786Z,38.31
2019-05-06T16:51:06.801Z,38.10
2019-05-06T16:51:54.021Z,37.48
2019-05-06T16:52:53.766Z,37.59
2019-05-06T16:53:53.826Z,37.69
2019-05-06T16:54:53.792Z,37.79
2019-05-06T16:55:55.532Z,37.90
2019-05-06T16:56:53.748Z,38.10
2019-05-06T16:57:53.720Z,38.01
2019-05-06T16:58:53.715Z,37.91
2019-05-06T16:59:53.673Z,37.81
2019-05-06T17:00:53.669Z,37.91
2019-05-06T17:01:53.650Z,37.50
2019-05-06T17:02:57.914Z,37.40
2019-05-06T17:03:54.637Z,37.40
2019-05-06T17:04:53.619Z,37.30
2019-05-06T17:05:53.607Z,37.81
2019-05-06T17:06:53.602Z,38.63
2019-05-06T17:07:53.625Z,38.54
2019-05-06T17:08:53.583Z,38.63
2019-05-06T17:09:53.563Z,38.65
2019-05-06T17:10:53.592Z,38.85
2019-05-06T17:11:53.545Z,38.13
2019-05-06T17:12:53.765Z,37.73
2019-05-06T17:13:53.559Z,38.12
2019-05-06T17:14:53.515Z,38.24
2019-05-06T17:15:53.496Z,37.83
2019-05-06T17:16:53.493Z,38.24
2019-05-06T17:17:53.477Z,38.03
2019-05-06T17:18:56.484Z,38.03
2019-05-06T17:19:53.458Z,38.75
2019-05-06T17:20:53.445Z,38.13
2019-05-06T17:22:06.505Z,37.93
2019-05-06T17:22:53.444Z,38.34
2019-05-06T17:23:53.427Z,38.75
2019-05-06T17:24:53.436Z,38.75
2019-05-06T17:25:53.428Z,39.47
2019-05-06T17:26:56.183Z,38.35
2019-05-06T17:27:53.367Z,37.84
2019-05-06T17:28:53.391Z,38.46
2019-05-06T17:29:53.354Z,38.56
2019-05-06T17:30:53.730Z,38.77
2019-05-06T17:31:53.325Z,38.26
2019-05-06T17:32:53.314Z,38.35
2019-05-06T17:33:53.297Z,38.46
2019-05-06T17:34:56.949Z,38.46
2019-05-06T17:35:53.319Z,38.35
2019-05-06T17:36:53.644Z,38.97
2019-05-06T17:37:53.250Z,38.79
2019-05-06T17:38:53.240Z,38.99
2019-05-06T17:40:06.980Z,39.50
2019-05-06T17:40:54.311Z,39.20
2019-05-06T17:41:53.216Z,38.99
2019-05-06T17:42:53.471Z,39.50
2019-05-06T17:43:53.191Z,40.14
2019-05-06T17:44:53.408Z,40.63
2019-05-06T17:46:01.346Z,40.34
2019-05-06T17:46:54.199Z,41.27
2019-05-06T17:47:53.154Z,41.37
2019-05-06T17:48:53.141Z,41.90
2019-05-06T17:49:53.126Z,41.19
2019-05-06T17:50:53.110Z,40.98
2019-05-06T17:51:53.099Z,42.11
2019-05-06T17:53:06.402Z,41.51
2019-05-06T17:53:53.099Z,41.72
2019-05-06T17:54:53.085Z,42.13
2019-05-06T17:55:53.068Z,42.74
2019-05-06T17:56:53.052Z,41.93
2019-05-06T17:57:53.088Z,41.93
2019-05-06T17:58:53.402Z,41.84
2019-05-06T17:59:53.024Z,42.02
2019-05-06T18:00:53.010Z,42.25
2019-05-06T18:01:53.298Z,42.97
2019-05-06T18:02:53.009Z,42.89
2019-05-06T18:03:52.970Z,42.47
2019-05-06T18:04:53.388Z,42.58
2019-05-06T18:05:52.949Z,43.42
2019-05-06T18:06:52.939Z,42.79
2019-05-06T18:07:52.931Z,44.02
2019-05-06T18:08:52.947Z,44.02
2019-05-06T18:09:52.930Z,43.52
2019-05-06T18:10:52.903Z,44.04
2019-05-06T18:11:58.882Z,44.65
2019-05-06T18:12:53.884Z,44.65
2019-05-06T18:13:52.871Z,44.86
2019-05-06T18:14:53.536Z,44.86
2019-05-06T18:15:53.122Z,45.28
2019-05-06T18:16:53.786Z,44.68
2019-05-06T18:17:52.819Z,45.29
2019-05-06T18:18:52.812Z,45.19
2019-05-06T18:19:52.798Z,45.09
2019-05-06T18:20:52.936Z,45.32
2019-05-06T18:21:52.978Z,45.73
2019-05-06T18:22:52.768Z,46.37
2019-05-06T18:24:04.061Z,46.78
2019-05-06T18:24:53.393Z,46.78
2019-05-06T18:25:53.312Z,46.88
2019-05-06T18:26:52.981Z,46.58
2019-05-06T18:27:52.748Z,46.39
2019-05-06T18:28:52.882Z,47.31
2019-05-06T18:29:53.295Z,47.03
2019-05-06T18:30:52.675Z,47.31
2019-05-06T18:31:52.667Z,47.55
2019-05-06T18:32:52.708Z,47.55
2019-05-06T18:33:52.898Z,47.03
2019-05-06T18:34:52.810Z,47.13
2019-05-06T18:35:53.625Z,47.03
2019-05-06T18:36:52.643Z,47.77
2019-05-06T18:37:52.602Z,49.32
2019-05-06T18:38:52.767Z,49.73
2019-05-06T18:39:53.138Z,49.73
2019-05-06T18:40:52.939Z,49.63
2019-05-06T18:41:53.231Z,49.22
2019-05-06T18:42:52.604Z,50.27
2019-05-06T18:43:53.693Z,49.86
2019-05-06T18:44:52.534Z,49.76
2019-05-06T18:45:52.512Z,50.38
2019-05-06T18:46:53.173Z,51.12
2019-05-06T18:47:53.135Z,50.68
2019-05-06T18:48:52.675Z,50.27
2019-05-06T18:49:52.577Z,50.38
2019-05-06T18:50:52.464Z,50.38
2019-05-06T18:51:54.251Z,50.50
2019-05-06T18:52:53.006Z,50.50
2019-05-06T18:53:52.643Z,49.78
2019-05-06T18:55:04.393Z,49.57
2019-05-06T18:55:52.432Z,49.88
2019-05-06T18:56:52.397Z,49.78
2019-05-06T18:57:52.904Z,50.29
2019-05-06T18:58:53.228Z,49.99
2019-05-06T18:59:53.359Z,49.99
2019-05-06T19:00:53.118Z,50.11
2019-05-06T19:01:53.862Z,50.81
2019-05-06T19:02:52.421Z,51.54
2019-05-06T19:03:52.595Z,51.66
2019-05-06T19:04:52.423Z,51.45
2019-05-06T19:05:52.977Z,51.56
2019-05-06T19:07:08.805Z,51.56
2019-05-06T19:07:53.271Z,50.73
2019-05-06T19:08:52.882Z,51.25
2019-05-06T19:09:52.836Z,51.45
2019-05-06T19:10:53.214Z,51.66
2019-05-06T19:11:54.417Z,52.28
2019-05-06T19:12:52.792Z,52.41
2019-05-06T19:13:52.667Z,52.20
2019-05-06T19:14:52.646Z,52.31
2019-05-06T19:15:52.741Z,52.62
2019-05-06T19:16:54.979Z,52.72
2019-05-06T19:17:52.737Z,52.62
2019-05-06T19:18:52.443Z,52.31
2019-05-06T19:19:52.192Z,53.03
2019-05-06T19:20:53.048Z,54.06
2019-05-06T19:21:52.458Z,53.44
2019-05-06T19:22:53.560Z,53.67
2019-05-06T19:23:54.819Z,53.65
2019-05-06T19:24:52.221Z,54.09
2019-05-06T19:26:04.047Z,53.36
2019-05-06T19:26:59.596Z,54.82
2019-05-06T19:27:53.133Z,54.82
2019-05-06T19:28:52.659Z,55.12
2019-05-06T19:29:54.297Z,55.33
2019-05-06T19:30:54.172Z,55.22
2019-05-06T19:31:52.252Z,55.64
2019-05-06T19:32:53.202Z,55.43
2019-05-06T19:33:52.669Z,55.85
2019-05-06T19:34:52.971Z,55.87
2019-05-06T19:35:52.374Z,56.57
2019-05-06T19:36:52.891Z,56.98
2019-05-06T19:37:51.948Z,56.49
2019-05-06T19:38:51.938Z,56.49
2019-05-06T19:39:52.633Z,55.87
2019-05-06T19:40:52.389Z,56.18
2019-05-06T19:41:51.900Z,55.05
2019-05-06T19:42:53.324Z,55.46
2019-05-06T19:43:52.373Z,55.25
2019-05-06T19:44:52.918Z,55.05
2019-05-06T19:45:53.054Z,53.91
2019-05-06T19:46:53.222Z,53.08
2019-05-06T19:47:52.336Z,53.05
2019-05-06T19:48:52.450Z,53.78
2019-05-06T19:49:53.191Z,52.33
2019-05-06T19:50:52.349Z,52.02
2019-05-06T19:51:52.333Z,51.48
2019-05-06T19:52:52.841Z,51.68
2019-05-06T19:53:51.791Z,51.79
2019-05-06T19:54:52.095Z,50.86
2019-05-06T19:55:53.005Z,51.15
2019-05-06T19:56:52.622Z,50.01
2019-05-06T19:58:03.982Z,50.84
2019-05-06T19:58:52.581Z,51.87
2019-05-06T19:59:52.211Z,52.08
2019-05-06T20:00:52.828Z,50.84
2019-05-06T20:01:52.449Z,50.63
2019-05-06T20:02:52.226Z,50.63
2019-05-06T20:03:52.618Z,50.52
2019-05-06T20:04:53.173Z,50.50
2019-05-06T20:05:54.228Z,50.40
2019-05-06T20:06:52.299Z,50.42
2019-05-06T20:07:52.188Z,50.73
2019-05-06T20:08:52.884Z,50.50
2019-05-06T20:09:52.194Z,50.71
2019-05-06T20:10:52.860Z,50.29
2019-05-06T20:11:51.978Z,50.29
2019-05-06T20:13:01.472Z,51.02
2019-05-06T20:13:52.690Z,51.15
2019-05-06T20:14:52.475Z,51.02
2019-05-06T20:15:52.108Z,50.63
2019-05-06T20:16:52.886Z,51.45
2019-05-06T20:17:52.074Z,51.84
2019-05-06T20:18:52.596Z,52.15
2019-05-06T20:19:51.957Z,51.95
2019-05-06T20:20:52.809Z,52.59
2019-05-06T20:21:52.698Z,53.81
2019-05-06T20:22:51.467Z,53.19
2019-05-06T20:23:52.656Z,53.70
2019-05-06T20:24:52.046Z,54.32
2019-05-06T20:25:51.935Z,54.32
2019-05-06T20:26:52.692Z,54.53
2019-05-06T20:27:52.626Z,54.43
2019-05-06T20:29:03.489Z,54.22
2019-05-06T20:29:52.273Z,54.84
2019-05-06T20:30:52.916Z,55.15
2019-05-06T20:31:53.412Z,55.66
2019-05-06T20:32:52.157Z,56.21
2019-05-06T20:33:52.837Z,56.18
2019-05-06T20:34:51.328Z,56.10
2019-05-06T20:35:52.577Z,56.41
2019-05-06T20:36:52.819Z,56.90
2019-05-06T20:37:53.403Z,57.04
2019-05-06T20:38:51.319Z,56.81
2019-05-06T20:39:51.290Z,57.55
2019-05-06T20:40:51.273Z,58.35
2019-05-06T20:41:51.264Z,58.89
2019-05-06T20:42:51.244Z,58.66
2019-05-06T20:43:51.266Z,58.79
2019-05-06T20:44:52.461Z,59.10
2019-05-06T20:45:52.174Z,58.87
2019-05-06T20:46:52.706Z,58.89
2019-05-06T20:47:52.549Z,59.10
2019-05-06T20:48:52.965Z,58.76
2019-05-06T20:49:52.597Z,58.87
2019-05-06T20:50:52.344Z,59.62
2019-05-06T20:51:52.167Z,59.49
2019-05-06T20:52:51.978Z,59.28
2019-05-06T20:53:51.122Z,59.93
2019-05-06T20:54:51.154Z,59.93
2019-05-06T20:55:53.029Z,60.03
2019-05-06T20:56:53.050Z,60.14
2019-05-06T20:57:52.907Z,59.72
2019-05-06T20:58:52.861Z,59.72
2019-05-06T21:00:06.970Z,60.14
2019-05-06T21:00:52.154Z,60.44
2019-05-06T21:01:51.956Z,60.03
2019-05-06T21:02:53.310Z,60.75
2019-05-06T21:03:52.899Z,60.14
2019-05-06T21:04:51.003Z,60.86
2019-05-06T21:05:51.006Z,60.75
2019-05-06T21:06:50.978Z,60.96
2019-05-06T21:07:52.584Z,60.65
2019-05-06T21:08:52.937Z,61.07
2019-05-06T21:09:52.550Z,61.10
2019-05-06T21:10:52.768Z,61.69
2019-05-06T21:11:52.776Z,61.38
2019-05-06T21:12:52.985Z,61.51
2019-05-06T21:13:50.910Z,61.69
2019-05-06T21:14:50.891Z,61.82
2019-05-06T21:15:50.886Z,62.23
2019-05-06T21:16:50.870Z,61.82
2019-05-06T21:17:50.893Z,61.92
2019-05-06T21:18:52.106Z,62.34
2019-05-06T21:19:51.918Z,62.54
2019-05-06T21:20:50.831Z,62.54
2019-05-06T21:21:52.740Z,62.67
2019-05-06T21:22:52.789Z,62.77
2019-05-06T21:23:52.403Z,63.71
2019-05-06T21:24:51.457Z,63.57
2019-05-06T21:25:52.369Z,63.60
2019-05-06T21:26:52.976Z,63.89
2019-05-06T21:27:53.075Z,63.89
2019-05-06T21:28:52.284Z,63.09
2019-05-06T21:29:52.337Z,63.29
2019-05-06T21:31:03.269Z,62.95
2019-05-06T21:31:52.947Z,63.81
2019-05-06T21:32:52.103Z,64.23
2019-05-06T21:33:52.223Z,63.92
2019-05-06T21:34:52.488Z,64.04
2019-05-06T21:35:52.281Z,64.36
2019-05-06T21:36:53.067Z,64.32
2019-05-06T21:37:52.834Z,64.36
2019-05-06T21:38:52.390Z,64.25
2019-05-06T21:39:52.929Z,64.98
2019-05-06T21:40:52.520Z,65.19
2019-05-06T21:41:52.141Z,65.29
2019-05-06T21:42:50.586Z,64.77
2019-05-06T21:43:50.577Z,65.29
2019-05-06T21:44:52.246Z,66.02
2019-05-06T21:45:50.545Z,65.70
2019-05-06T21:46:50.625Z,65.91
2019-05-06T21:47:52.845Z,65.84
2019-05-06T21:48:52.787Z,65.94
2019-05-06T21:49:52.770Z,66.53
2019-05-06T21:50:52.209Z,66.12
2019-05-06T21:51:50.486Z,66.02
2019-05-06T21:52:50.512Z,66.12
2019-05-06T21:53:50.461Z,66.42
2019-05-06T21:54:52.429Z,66.32
2019-05-06T21:55:52.349Z,66.42
2019-05-06T21:56:50.424Z,66.46
2019-05-06T21:57:50.425Z,66.56
2019-05-06T21:58:52.413Z,66.56
2019-05-06T21:59:52.374Z,67.18
2019-05-06T22:00:52.566Z,67.29
2019-05-06T22:02:02.542Z,67.18
2019-05-06T22:02:50.367Z,67.18
2019-05-06T22:03:50.353Z,67.29
2019-05-06T22:04:52.329Z,67.29
2019-05-06T22:05:54.350Z,67.08
2019-05-06T22:06:52.408Z,67.39
2019-05-06T22:07:52.196Z,66.97
2019-05-06T22:08:51.877Z,67.29
2019-05-06T22:09:52.752Z,67.29
2019-05-06T22:10:50.308Z,67.18
2019-05-06T22:11:50.261Z,67.49
2019-05-06T22:12:52.569Z,67.18
2019-05-06T22:13:58.960Z,67.60
2019-05-06T22:14:52.995Z,68.12
2019-05-06T22:15:50.219Z,67.60
2019-05-06T22:16:50.208Z,66.97
2019-05-06T22:17:50.199Z,67.80
2019-05-06T22:18:52.694Z,68.22
2019-05-06T22:19:52.294Z,68.01
2019-05-06T22:20:51.868Z,67.91
2019-05-06T22:21:52.175Z,67.70
2019-05-06T22:22:51.985Z,67.73
2019-05-06T22:23:50.148Z,67.83
2019-05-06T22:24:55.534Z,68.15
2019-05-06T22:25:51.142Z,68.04
2019-05-06T22:26:51.971Z,68.56
2019-05-06T22:27:51.920Z,68.25
2019-05-06T22:28:52.299Z,68.87
2019-05-06T22:29:52.070Z,68.56
2019-05-06T22:30:51.950Z,69.29
2019-05-06T22:31:51.856Z,69.11
2019-05-06T22:33:03.647Z,68.90
2019-05-06T22:33:50.032Z,68.70
2019-05-06T22:34:50.017Z,68.59
2019-05-06T22:35:52.024Z,69.01
2019-05-06T22:36:51.920Z,69.42
2019-05-06T22:37:49.985Z,69.21
2019-05-06T22:38:49.957Z,69.01
2019-05-06T22:39:52.551Z,69.53
2019-05-06T22:40:49.968Z,69.32
2019-05-06T22:41:51.485Z,69.53
2019-05-06T22:42:49.950Z,69.94
2019-05-06T22:43:49.908Z,70.80
2019-05-06T22:44:49.910Z,70.49
2019-05-06T22:45:49.899Z,70.70
2019-05-06T22:46:49.895Z,70.49
2019-05-06T22:47:49.952Z,70.49
2019-05-06T22:48:49.859Z,69.45
2019-05-06T22:49:49.842Z,69.87
2019-05-06T22:50:49.830Z,70.28
2019-05-06T22:51:52.045Z,70.59
2019-05-06T22:52:49.802Z,70.18
2019-05-06T22:53:49.853Z,70.59
2019-05-06T22:54:49.820Z,69.97
2019-05-06T22:55:49.777Z,70.59
2019-05-06T22:56:49.768Z,70.49
2019-05-06T22:57:49.752Z,69.97
2019-05-06T22:58:49.734Z,70.18
2019-05-06T22:59:49.723Z,70.59
2019-05-06T23:00:49.752Z,70.80
2019-05-06T23:01:49.709Z,70.80
2019-05-06T23:02:49.695Z,70.70
2019-05-06T23:04:03.027Z,69.76
2019-05-06T23:04:49.718Z,70.59
2019-05-06T23:05:49.680Z,70.56
2019-05-06T23:06:49.712Z,70.80
2019-05-06T23:07:49.641Z,69.87
2019-05-06T23:08:49.638Z,69.45
2019-05-06T23:09:49.625Z,69.76
2019-05-06T23:10:49.607Z,69.87
2019-05-06T23:11:49.603Z,69.45
2019-05-06T23:12:49.602Z,69.87
2019-05-06T23:13:49.572Z,70.07
2019-05-06T23:14:49.574Z,70.07
2019-05-06T23:15:49.554Z,69.97
2019-05-06T23:16:49.536Z,69.24
2019-05-06T23:17:49.609Z,69.87
2019-05-06T23:18:49.568Z,69.66
2019-05-06T23:19:49.509Z,69.35
2019-05-06T23:20:49.495Z,68.73
2019-05-06T23:21:49.494Z,68.73